UKON/NLV METAR and TAF weather

Enter ICAO airport designator
Station Type Date Time Source
UKON METAR 2022/02/24 05:00 UTC NOAA

UKON 240500Z 35003MPS CAVOK 00/M01 Q1021 NOSIG


Station Type Date Time Source
UKON Decoded METAR 2022/02/24 05:00 UTC NOAA

Mykolaiv, Ukraine (UKON) 47-03-29N 031-55-15E
Feb 24, 2022 - 12:00 AM EST / 2022.02.24 0500 UTC
Wind: from the N (350 degrees) at 7 MPH (6 KT):0
Visibility: greater than 7 mile(s):0
Temperature: 32 F (0 C)
Windchill: 24 F (-4 C):1
Dew Point: 30 F (-1 C)
Relative Humidity: 92%
Pressure (altimeter): 30.15 in. Hg (1021 hPa)
ob: UKON 240500Z 35003MPS CAVOK 00/M01 Q1021 NOSIG
cycle: 5

Station Type Date Time Source
UKON TAF 2018/11/06 15:06 UTC NOAA

TAF
AMD TAF
AMD UKON 061502Z 0615/0724 CNL

Example: see airport list